sensor_id;sensor_type;location;lat;lon;timestamp;temperature;humidity
4964;DHT22;2497;47.410;9.740;2023-06-14T00:01:45;16.20;99.90
4964;DHT22;2497;47.410;9.740;2023-06-14T00:04:13;16.10;99.90
4964;DHT22;2497;47.410;9.740;2023-06-14T00:06:42;16.10;99.90
4964;DHT22;2497;47.410;9.740;2023-06-14T00:09:10;16.00;99.90
4964;DHT22;2497;47.410;9.740;2023-06-14T00:11:38;16.00;99.90
4964;DHT22;2497;47.410;9.740;2023-06-14T00:14:07;16.00;99.90
4964;DHT22;2497;47.410;9.740;2023-06-14T00:16:34;16.00;99.90
4964;DHT22;2497;47.410;9.740;2023-06-14T00:19:02;16.00;99.90
4964;DHT22;2497;47.410;9.740;2023-06-14T00:21:30;16.00;99.90
4964;DHT22;2497;47.410;9.740;2023-06-14T00:23:57;16.00;99.90
4964;DHT22;2497;47.410;9.740;2023-06-14T00:26:25;16.00;99.90
4964;DHT22;2497;47.410;9.740;2023-06-14T00:28:53;16.00;99.90
4964;DHT22;2497;47.410;9.740;2023-06-14T00:31:22;16.00;99.90
4964;DHT22;2497;47.410;9.740;2023-06-14T00:33:49;15.90;99.90
4964;DHT22;2497;47.410;9.740;2023-06-14T00:36:16;15.90;99.90
4964;DHT22;2497;47.410;9.740;2023-06-14T00:38:43;15.90;99.90
4964;DHT22;2497;47.410;9.740;2023-06-14T00:41:10;15.80;99.90
4964;DHT22;2497;47.410;9.740;2023-06-14T00:43:37;15.80;99.90
4964;DHT22;2497;47.410;9.740;2023-06-14T00:46:04;15.70;99.90
4964;DHT22;2497;47.410;9.740;2023-06-14T00:48:33;15.70;99.90
4964;DHT22;2497;47.410;9.740;2023-06-14T00:51:00;15.70;99.90
4964;DHT22;2497;47.410;9.740;2023-06-14T00:53:29;15.60;99.90
4964;DHT22;2497;47.410;9.740;2023-06-14T00:56:00;15.50;99.90
4964;DHT22;2497;47.410;9.740;2023-06-14T00:58:27;15.50;99.90
4964;DHT22;2497;47.410;9.740;2023-06-14T01:00:55;15.50;99.90
4964;DHT22;2497;47.410;9.740;2023-06-14T01:03:23;15.50;99.90
4964;DHT22;2497;47.410;9.740;2023-06-14T01:06:18;15.50;99.90
4964;DHT22;2497;47.410;9.740;2023-06-14T01:09:07;15.40;99.90
4964;DHT22;2497;47.410;9.740;2023-06-14T01:11:45;15.30;99.90
4964;DHT22;2497;47.410;9.740;2023-06-14T01:14:14;15.20;99.90
4964;DHT22;2497;47.410;9.740;2023-06-14T01:16:44;15.20;99.90
4964;DHT22;2497;47.410;9.740;2023-06-14T01:19:12;15.20;99.90
4964;DHT22;2497;47.410;9.740;2023-06-14T01:21:42;15.20;99.90
4964;DHT22;2497;47.410;9.740;2023-06-14T01:24:10;15.20;99.90
4964;DHT22;2497;47.410;9.740;2023-06-14T01:26:38;15.10;99.90
4964;DHT22;2497;47.410;9.740;2023-06-14T01:29:13;15.10;99.90
4964;DHT22;2497;47.410;9.740;2023-06-14T01:31:43;15.10;99.90
4964;DHT22;2497;47.410;9.740;2023-06-14T01:34:11;15.10;99.90
4964;DHT22;2497;47.410;9.740;2023-06-14T01:36:40;15.10;99.90
4964;DHT22;2497;47.410;9.740;2023-06-14T01:39:09;15.10;99.90
4964;DHT22;2497;47.410;9.740;2023-06-14T01:41:40;15.00;99.90
4964;DHT22;2497;47.410;9.740;2023-06-14T01:44:07;15.00;99.90
4964;DHT22;2497;47.410;9.740;2023-06-14T01:46:35;14.90;99.90
4964;DHT22;2497;47.410;9.740;2023-06-14T01:49:03;14.90;99.90
4964;DHT22;2497;47.410;9.740;2023-06-14T01:51:30;14.90;99.90
4964;DHT22;2497;47.410;9.740;2023-06-14T01:53:57;14.90;99.90
4964;DHT22;2497;47.410;9.740;2023-06-14T01:56:26;14.80;99.90
4964;DHT22;2497;47.410;9.740;2023-06-14T01:58:53;14.80;99.90
4964;DHT22;2497;47.410;9.740;2023-06-14T02:01:22;14.80;99.90
4964;DHT22;2497;47.410;9.740;2023-06-14T02:03:49;14.80;99.90
4964;DHT22;2497;47.410;9.740;2023-06-14T02:06:16;14.80;99.90
4964;DHT22;2497;47.410;9.740;2023-06-14T02:08:43;14.80;99.90
4964;DHT22;2497;47.410;9.740;2023-06-14T02:11:11;14.80;99.90
4964;DHT22;2497;47.410;9.740;2023-06-14T02:13:39;14.80;99.90
4964;DHT22;2497;47.410;9.740;2023-06-14T02:16:06;14.80;99.90
4964;DHT22;2497;47.410;9.740;2023-06-14T02:18:33;14.80;99.90
4964;DHT22;2497;47.410;9.740;2023-06-14T02:21:00;14.70;99.90
4964;DHT22;2497;47.410;9.740;2023-06-14T02:23:27;14.70;99.90
4964;DHT22;2497;47.410;9.740;2023-06-14T02:25:54;14.70;99.90
4964;DHT22;2497;47.410;9.740;2023-06-14T02:28:22;14.60;99.90
4964;DHT22;2497;47.410;9.740;2023-06-14T02:30:50;14.60;99.90
4964;DHT22;2497;47.410;9.740;2023-06-14T02:33:17;14.60;99.90
4964;DHT22;2497;47.410;9.740;2023-06-14T02:35:44;14.60;99.90
4964;DHT22;2497;47.410;9.740;2023-06-14T02:38:12;14.60;99.90
4964;DHT22;2497;47.410;9.740;2023-06-14T02:40:53;14.60;99.90
4964;DHT22;2497;47.410;9.740;2023-06-14T02:43:20;14.60;99.90
4964;DHT22;2497;47.410;9.740;2023-06-14T02:45:47;14.50;99.90
4964;DHT22;2497;47.410;9.740;2023-06-14T02:48:15;14.50;99.90
4964;DHT22;2497;47.410;9.740;2023-06-14T02:50:43;14.50;99.90
4964;DHT22;2497;47.410;9.740;2023-06-14T02:53:10;14.50;99.90
4964;DHT22;2497;47.410;9.740;2023-06-14T02:55:37;14.60;99.90
4964;DHT22;2497;47.410;9.740;2023-06-14T02:58:05;14.50;99.90
4964;DHT22;2497;47.410;9.740;2023-06-14T03:00:33;14.40;99.90
4964;DHT22;2497;47.410;9.740;2023-06-14T03:03:00;14.50;99.90
4964;DHT22;2497;47.410;9.740;2023-06-14T03:05:29;14.60;99.90
4964;DHT22;2497;47.410;9.740;2023-06-14T03:07:56;14.50;99.90
4964;DHT22;2497;47.410;9.740;2023-06-14T03:10:24;14.50;99.90
4964;DHT22;2497;47.410;9.740;2023-06-14T03:12:54;14.50;99.90
4964;DHT22;2497;47.410;9.740;2023-06-14T03:15:21;14.50;99.90
4964;DHT22;2497;47.410;9.740;2023-06-14T03:17:50;14.30;99.90
4964;DHT22;2497;47.410;9.740;2023-06-14T03:20:19;14.20;99.90
4964;DHT22;2497;47.410;9.740;2023-06-14T03:22:47;14.30;99.90
4964;DHT22;2497;47.410;9.740;2023-06-14T03:25:15;14.30;99.90
4964;DHT22;2497;47.410;9.740;2023-06-14T03:27:42;14.30;99.90
4964;DHT22;2497;47.410;9.740;2023-06-14T03:30:09;14.30;99.90
4964;DHT22;2497;47.410;9.740;2023-06-14T03:32:36;14.30;99.90
4964;DHT22;2497;47.410;9.740;2023-06-14T03:35:04;14.30;99.90
4964;DHT22;2497;47.410;9.740;2023-06-14T03:37:32;14.30;99.90
4964;DHT22;2497;47.410;9.740;2023-06-14T03:40:00;14.30;99.90
4964;DHT22;2497;47.410;9.740;2023-06-14T03:42:32;14.30;99.90
4964;DHT22;2497;47.410;9.740;2023-06-14T03:44:59;14.20;99.90
4964;DHT22;2497;47.410;9.740;2023-06-14T03:47:26;14.20;99.90
4964;DHT22;2497;47.410;9.740;2023-06-14T03:49:53;14.20;99.90
4964;DHT22;2497;47.410;9.740;2023-06-14T03:52:21;14.10;99.90
4964;DHT22;2497;47.410;9.740;2023-06-14T03:54:49;14.00;99.90
4964;DHT22;2497;47.410;9.740;2023-06-14T03:57:18;14.10;99.90
4964;DHT22;2497;47.410;9.740;2023-06-14T03:59:45;14.10;99.90
4964;DHT22;2497;47.410;9.740;2023-06-14T04:02:12;14.00;99.90
4964;DHT22;2497;47.410;9.740;2023-06-14T04:04:42;14.00;99.90
4964;DHT22;2497;47.410;9.740;2023-06-14T04:07:10;13.90;99.90
4964;DHT22;2497;47.410;9.740;2023-06-14T04:09:37;13.90;99.90
4964;DHT22;2497;47.410;9.740;2023-06-14T04:12:05;14.00;99.90
4964;DHT22;2497;47.410;9.740;2023-06-14T04:14:36;14.00;99.90
4964;DHT22;2497;47.410;9.740;2023-06-14T04:17:04;14.10;99.90
4964;DHT22;2497;47.410;9.740;2023-06-14T04:19:31;14.10;99.90
4964;DHT22;2497;47.410;9.740;2023-06-14T04:22:01;14.10;99.90
4964;DHT22;2497;47.410;9.740;2023-06-14T04:24:29;14.00;99.90
4964;DHT22;2497;47.410;9.740;2023-06-14T04:26:58;13.90;99.90
4964;DHT22;2497;47.410;9.740;2023-06-14T04:29:26;13.70;99.90
4964;DHT22;2497;47.410;9.740;2023-06-14T04:31:56;13.80;99.90
4964;DHT22;2497;47.410;9.740;2023-06-14T04:34:25;13.80;99.90
4964;DHT22;2497;47.410;9.740;2023-06-14T04:36:55;13.70;99.90
4964;DHT22;2497;47.410;9.740;2023-06-14T04:39:24;13.80;99.90
4964;DHT22;2497;47.410;9.740;2023-06-14T04:41:51;13.80;99.90
4964;DHT22;2497;47.410;9.740;2023-06-14T04:44:23;14.10;99.90
4964;DHT22;2497;47.410;9.740;2023-06-14T04:46:57;14.10;99.90
4964;DHT22;2497;47.410;9.740;2023-06-14T04:49:24;14.00;99.90
4964;DHT22;2497;47.410;9.740;2023-06-14T04:51:52;14.20;99.90
4964;DHT22;2497;47.410;9.740;2023-06-14T04:54:23;14.20;99.90
4964;DHT22;2497;47.410;9.740;2023-06-14T04:56:51;14.20;99.90
4964;DHT22;2497;47.410;9.740;2023-06-14T04:59:18;14.30;99.90
4964;DHT22;2497;47.410;9.740;2023-06-14T05:02:08;14.30;99.90
4964;DHT22;2497;47.410;9.740;2023-06-14T05:07:34;14.40;99.90
4964;DHT22;2497;47.410;9.740;2023-06-14T05:10:06;14.50;99.90
4964;DHT22;2497;47.410;9.740;2023-06-14T05:12:35;14.50;99.90
4964;DHT22;2497;47.410;9.740;2023-06-14T05:15:03;14.50;99.90
4964;DHT22;2497;47.410;9.740;2023-06-14T05:17:34;14.50;99.90
4964;DHT22;2497;47.410;9.740;2023-06-14T05:20:05;14.50;99.90
4964;DHT22;2497;47.410;9.740;2023-06-14T05:22:33;14.50;99.90
4964;DHT22;2497;47.410;9.740;2023-06-14T05:25:04;14.50;99.90
4964;DHT22;2497;47.410;9.740;2023-06-14T05:27:32;14.40;99.90
4964;DHT22;2497;47.410;9.740;2023-06-14T05:30:03;14.50;99.90
4964;DHT22;2497;47.410;9.740;2023-06-14T05:32:35;14.50;99.90
4964;DHT22;2497;47.410;9.740;2023-06-14T05:35:02;14.50;99.90
4964;DHT22;2497;47.410;9.740;2023-06-14T05:37:34;14.60;99.90
4964;DHT22;2497;47.410;9.740;2023-06-14T05:40:03;14.80;99.90
4964;DHT22;2497;47.410;9.740;2023-06-14T05:42:34;14.80;99.90
4964;DHT22;2497;47.410;9.740;2023-06-14T05:45:01;14.90;99.90
4964;DHT22;2497;47.410;9.740;2023-06-14T05:47:29;14.90;99.90
4964;DHT22;2497;47.410;9.740;2023-06-14T05:50:03;15.00;99.90
4964;DHT22;2497;47.410;9.740;2023-06-14T05:52:35;15.10;99.90
4964;DHT22;2497;47.410;9.740;2023-06-14T05:55:05;15.10;99.90
4964;DHT22;2497;47.410;9.740;2023-06-14T05:57:35;15.20;99.90
4964;DHT22;2497;47.410;9.740;2023-06-14T06:00:05;15.30;99.90
4964;DHT22;2497;47.410;9.740;2023-06-14T06:02:47;15.40;99.90
4964;DHT22;2497;47.410;9.740;2023-06-14T06:05:25;15.50;99.90
4964;DHT22;2497;47.410;9.740;2023-06-14T06:07:55;15.60;99.90
4964;DHT22;2497;47.410;9.740;2023-06-14T06:10:22;15.70;99.90
4964;DHT22;2497;47.410;9.740;2023-06-14T06:12:51;15.90;99.90
4964;DHT22;2497;47.410;9.740;2023-06-14T06:15:25;15.90;99.90
4964;DHT22;2497;47.410;9.740;2023-06-14T06:17:53;16.00;99.90
4964;DHT22;2497;47.410;9.740;2023-06-14T06:20:25;16.00;99.90
4964;DHT22;2497;47.410;9.740;2023-06-14T06:23:04;16.10;99.90
4964;DHT22;2497;47.410;9.740;2023-06-14T06:25:33;16.10;99.90
4964;DHT22;2497;47.410;9.740;2023-06-14T06:28:06;16.20;99.90
4964;DHT22;2497;47.410;9.740;2023-06-14T06:30:54;16.10;99.90
4964;DHT22;2497;47.410;9.740;2023-06-14T06:33:27;16.40;99.90
4964;DHT22;2497;47.410;9.740;2023-06-14T06:36:04;16.40;99.90
4964;DHT22;2497;47.410;9.740;2023-06-14T06:38:35;16.50;99.90
4964;DHT22;2497;47.410;9.740;2023-06-14T06:41:05;16.50;99.90
4964;DHT22;2497;47.410;9.740;2023-06-14T06:43:34;16.70;99.90
4964;DHT22;2497;47.410;9.740;2023-06-14T06:46:03;16.70;99.90
4964;DHT22;2497;47.410;9.740;2023-06-14T06:48:34;16.60;99.90
4964;DHT22;2497;47.410;9.740;2023-06-14T06:51:15;16.70;99.90
4964;DHT22;2497;47.410;9.740;2023-06-14T06:53:43;17.00;99.90
4964;DHT22;2497;47.410;9.740;2023-06-14T06:56:16;17.00;99.90
4964;DHT22;2497;47.410;9.740;2023-06-14T06:58:57;17.10;99.90
4964;DHT22;2497;47.410;9.740;2023-06-14T07:01:34;17.10;99.90
4964;DHT22;2497;47.410;9.740;2023-06-14T07:04:04;17.30;99.90
4964;DHT22;2497;47.410;9.740;2023-06-14T07:06:35;17.40;99.90
4964;DHT22;2497;47.410;9.740;2023-06-14T07:09:04;17.30;99.90
4964;DHT22;2497;47.410;9.740;2023-06-14T07:11:33;17.30;99.90
4964;DHT22;2497;47.410;9.740;2023-06-14T07:14:04;17.40;99.90
4964;DHT22;2497;47.410;9.740;2023-06-14T07:16:37;17.60;99.90
4964;DHT22;2497;47.410;9.740;2023-06-14T07:19:06;17.80;99.90
4964;DHT22;2497;47.410;9.740;2023-06-14T07:21:37;18.00;99.90
4964;DHT22;2497;47.410;9.740;2023-06-14T07:24:16;18.00;99.90
4964;DHT22;2497;47.410;9.740;2023-06-14T07:26:54;18.20;99.90
4964;DHT22;2497;47.410;9.740;2023-06-14T07:29:24;18.20;99.90
4964;DHT22;2497;47.410;9.740;2023-06-14T07:32:02;18.30;99.90
4964;DHT22;2497;47.410;9.740;2023-06-14T07:34:46;18.40;99.90
4964;DHT22;2497;47.410;9.740;2023-06-14T07:37:34;18.70;99.90
4964;DHT22;2497;47.410;9.740;2023-06-14T07:40:08;18.80;99.90
4964;DHT22;2497;47.410;9.740;2023-06-14T07:42:54;18.90;99.90
4964;DHT22;2497;47.410;9.740;2023-06-14T07:45:23;19.20;99.90
4964;DHT22;2497;47.410;9.740;2023-06-14T07:48:04;19.30;99.90
4964;DHT22;2497;47.410;9.740;2023-06-14T07:50:34;19.50;99.90
4964;DHT22;2497;47.410;9.740;2023-06-14T07:53:14;20.10;99.90
4964;DHT22;2497;47.410;9.740;2023-06-14T07:55:47;20.20;99.90
4964;DHT22;2497;47.410;9.740;2023-06-14T07:58:15;20.10;99.90
4964;DHT22;2497;47.410;9.740;2023-06-14T08:00:44;20.20;99.90
4964;DHT22;2497;47.410;9.740;2023-06-14T08:03:16;20.60;99.90
4964;DHT22;2497;47.410;9.740;2023-06-14T08:05:56;21.70;99.90
4964;DHT22;2497;47.410;9.740;2023-06-14T08:08:45;21.60;99.90
4964;DHT22;2497;47.410;9.740;2023-06-14T08:11:15;21.40;99.90
4964;DHT22;2497;47.410;9.740;2023-06-14T08:13:43;21.20;99.90
4964;DHT22;2497;47.410;9.740;2023-06-14T08:16:15;21.30;99.90
4964;DHT22;2497;47.410;9.740;2023-06-14T08:18:45;21.70;99.90
4964;DHT22;2497;47.410;9.740;2023-06-14T08:21:27;22.30;99.90
4964;DHT22;2497;47.410;9.740;2023-06-14T08:24:05;22.20;99.90
4964;DHT22;2497;47.410;9.740;2023-06-14T08:26:44;22.10;99.90
4964;DHT22;2497;47.410;9.740;2023-06-14T08:29:17;21.80;99.90
4964;DHT22;2497;47.410;9.740;2023-06-14T08:31:46;23.40;99.90
4964;DHT22;2497;47.410;9.740;2023-06-14T08:34:17;24.30;99.90
4964;DHT22;2497;47.410;9.740;2023-06-14T08:36:53;24.50;99.90
4964;DHT22;2497;47.410;9.740;2023-06-14T08:39:25;25.10;99.90
4964;DHT22;2497;47.410;9.740;2023-06-14T08:41:56;24.60;99.90
4964;DHT22;2497;47.410;9.740;2023-06-14T08:44:35;25.00;99.90
4964;DHT22;2497;47.410;9.740;2023-06-14T08:47:36;25.50;99.90
4964;DHT22;2497;47.410;9.740;2023-06-14T08:50:22;25.00;99.90
4964;DHT22;2497;47.410;9.740;2023-06-14T08:52:54;24.60;99.90
4964;DHT22;2497;47.410;9.740;2023-06-14T08:55:24;23.60;99.90
4964;DHT22;2497;47.410;9.740;2023-06-14T08:57:56;24.00;99.90
4964;DHT22;2497;47.410;9.740;2023-06-14T09:00:26;24.30;99.90
4964;DHT22;2497;47.410;9.740;2023-06-14T09:02:56;24.80;99.90
4964;DHT22;2497;47.410;9.740;2023-06-14T09:05:24;24.40;99.90
4964;DHT22;2497;47.410;9.740;2023-06-14T09:07:52;23.90;99.90
4964;DHT22;2497;47.410;9.740;2023-06-14T09:10:24;23.90;99.90
4964;DHT22;2497;47.410;9.740;2023-06-14T09:13:00;23.90;99.90
4964;DHT22;2497;47.410;9.740;2023-06-14T09:15:46;23.90;99.90
4964;DHT22;2497;47.410;9.740;2023-06-14T09:18:16;23.90;99.90
4964;DHT22;2497;47.410;9.740;2023-06-14T09:21:02;24.00;99.90
4964;DHT22;2497;47.410;9.740;2023-06-14T09:23:36;24.40;99.90
4964;DHT22;2497;47.410;9.740;2023-06-14T09:26:16;25.10;99.90
4964;DHT22;2497;47.410;9.740;2023-06-14T09:28:46;24.90;99.90
4964;DHT22;2497;47.410;9.740;2023-06-14T09:31:14;24.90;99.90
4964;DHT22;2497;47.410;9.740;2023-06-14T09:33:55;25.20;99.90
4964;DHT22;2497;47.410;9.740;2023-06-14T09:36:25;24.80;99.90
4964;DHT22;2497;47.410;9.740;2023-06-14T09:38:56;25.00;99.90
4964;DHT22;2497;47.410;9.740;2023-06-14T09:41:34;25.00;99.90
4964;DHT22;2497;47.410;9.740;2023-06-14T09:44:02;25.20;99.90
4964;DHT22;2497;47.410;9.740;2023-06-14T09:46:32;25.60;99.90
4964;DHT22;2497;47.410;9.740;2023-06-14T09:49:07;25.30;99.90
4964;DHT22;2497;47.410;9.740;2023-06-14T09:51:45;25.30;99.90
4964;DHT22;2497;47.410;9.740;2023-06-14T09:54:26;25.60;99.90
4964;DHT22;2497;47.410;9.740;2023-06-14T09:56:55;26.10;99.90
4964;DHT22;2497;47.410;9.740;2023-06-14T09:59:26;26.30;99.90
4964;DHT22;2497;47.410;9.740;2023-06-14T10:02:00;26.00;99.90
4964;DHT22;2497;47.410;9.740;2023-06-14T10:04:34;25.90;99.90
4964;DHT22;2497;47.410;9.740;2023-06-14T10:07:04;26.20;99.90
4964;DHT22;2497;47.410;9.740;2023-06-14T10:09:37;26.20;99.90
4964;DHT22;2497;47.410;9.740;2023-06-14T10:12:17;26.10;99.90
4964;DHT22;2497;47.410;9.740;2023-06-14T10:14:55;26.10;99.90
4964;DHT22;2497;47.410;9.740;2023-06-14T10:17:33;26.40;99.90
4964;DHT22;2497;47.410;9.740;2023-06-14T10:20:15;26.50;99.90
4964;DHT22;2497;47.410;9.740;2023-06-14T10:28:25;27.40;99.90
4964;DHT22;2497;47.410;9.740;2023-06-14T10:31:08;27.70;99.90
4964;DHT22;2497;47.410;9.740;2023-06-14T10:34:03;27.80;99.90
4964;DHT22;2497;47.410;9.740;2023-06-14T10:36:43;28.10;99.90
4964;DHT22;2497;47.410;9.740;2023-06-14T10:41:57;28.30;99.90
4964;DHT22;2497;47.410;9.740;2023-06-14T10:44:45;28.00;99.90
4964;DHT22;2497;47.410;9.740;2023-06-14T10:50:06;28.10;99.90
4964;DHT22;2497;47.410;9.740;2023-06-14T10:52:39;28.60;99.90
4964;DHT22;2497;47.410;9.740;2023-06-14T10:55:09;29.50;99.90
4964;DHT22;2497;47.410;9.740;2023-06-14T11:00:36;30.00;99.90
4964;DHT22;2497;47.410;9.740;2023-06-14T11:03:36;29.80;99.90
4964;DHT22;2497;47.410;9.740;2023-06-14T11:06:14;30.30;99.90
4964;DHT22;2497;47.410;9.740;2023-06-14T11:09:11;29.80;99.90
4964;DHT22;2497;47.410;9.740;2023-06-14T11:11:46;29.80;99.90
4964;DHT22;2497;47.410;9.740;2023-06-14T11:14:16;30.30;99.90
4964;DHT22;2497;47.410;9.740;2023-06-14T11:16:55;29.80;99.90
4964;DHT22;2497;47.410;9.740;2023-06-14T11:19:27;30.20;99.90
4964;DHT22;2497;47.410;9.740;2023-06-14T11:22:05;30.90;99.90
4964;DHT22;2497;47.410;9.740;2023-06-14T11:27:27;31.00;99.90
4964;DHT22;2497;47.410;9.740;2023-06-14T11:29:56;30.80;99.90
4964;DHT22;2497;47.410;9.740;2023-06-14T11:32:26;30.70;99.90
4964;DHT22;2497;47.410;9.740;2023-06-14T11:34:54;30.90;99.90
4964;DHT22;2497;47.410;9.740;2023-06-14T11:37:25;30.80;99.90
4964;DHT22;2497;47.410;9.740;2023-06-14T11:39:56;30.80;99.90
4964;DHT22;2497;47.410;9.740;2023-06-14T11:42:25;31.10;99.90
4964;DHT22;2497;47.410;9.740;2023-06-14T11:55:47;32.30;99.90
4964;DHT22;2497;47.410;9.740;2023-06-14T12:03:35;32.70;99.90
4964;DHT22;2497;47.410;9.740;2023-06-14T12:06:14;32.70;99.90
4964;DHT22;2497;47.410;9.740;2023-06-14T12:15:27;32.80;99.90
4964;DHT22;2497;47.410;9.740;2023-06-14T12:30:45;31.90;99.90
4964;DHT22;2497;47.410;9.740;2023-06-14T12:36:19;32.10;99.90
4964;DHT22;2497;47.410;9.740;2023-06-14T12:44:18;32.30;99.90
4964;DHT22;2497;47.410;9.740;2023-06-14T12:46:56;32.00;99.90
4964;DHT22;2497;47.410;9.740;2023-06-14T12:52:08;31.30;99.90
4964;DHT22;2497;47.410;9.740;2023-06-14T12:54:36;31.30;99.90
4964;DHT22;2497;47.410;9.740;2023-06-14T12:57:05;31.00;99.90
4964;DHT22;2497;47.410;9.740;2023-06-14T12:59:35;31.20;99.90
4964;DHT22;2497;47.410;9.740;2023-06-14T13:02:15;31.10;99.90
4964;DHT22;2497;47.410;9.740;2023-06-14T13:04:43;31.00;99.90
4964;DHT22;2497;47.410;9.740;2023-06-14T13:07:16;31.10;99.90
4964;DHT22;2497;47.410;9.740;2023-06-14T13:10:08;31.40;99.90
4964;DHT22;2497;47.410;9.740;2023-06-14T13:12:55;31.40;99.90
4964;DHT22;2497;47.410;9.740;2023-06-14T13:17:55;31.10;99.90
4964;DHT22;2497;47.410;9.740;2023-06-14T13:20:27;31.00;99.90
4964;DHT22;2497;47.410;9.740;2023-06-14T13:22:54;30.80;99.90
4964;DHT22;2497;47.410;9.740;2023-06-14T13:25:25;30.70;99.90
4964;DHT22;2497;47.410;9.740;2023-06-14T13:27:58;30.70;99.90
4964;DHT22;2497;47.410;9.740;2023-06-14T13:33:17;30.60;99.90
4964;DHT22;2497;47.410;9.740;2023-06-14T13:35:57;31.00;99.90
4964;DHT22;2497;47.410;9.740;2023-06-14T13:38:25;31.10;99.90
4964;DHT22;2497;47.410;9.740;2023-06-14T13:40:55;30.60;99.90
4964;DHT22;2497;47.410;9.740;2023-06-14T13:43:27;30.80;99.90
4964;DHT22;2497;47.410;9.740;2023-06-14T13:45:56;30.60;99.90
4964;DHT22;2497;47.410;9.740;2023-06-14T13:48:26;30.20;99.90
4964;DHT22;2497;47.410;9.740;2023-06-14T13:50:55;30.00;99.90
4964;DHT22;2497;47.410;9.740;2023-06-14T13:53:22;30.10;99.90
4964;DHT22;2497;47.410;9.740;2023-06-14T13:55:57;30.40;99.90
4964;DHT22;2497;47.410;9.740;2023-06-14T13:58:34;30.70;99.90
4964;DHT22;2497;47.410;9.740;2023-06-14T14:01:10;31.00;99.90
4964;DHT22;2497;47.410;9.740;2023-06-14T14:03:45;31.00;99.90
4964;DHT22;2497;47.410;9.740;2023-06-14T14:06:12;30.70;99.90
4964;DHT22;2497;47.410;9.740;2023-06-14T14:08:40;30.90;99.90
4964;DHT22;2497;47.410;9.740;2023-06-14T14:11:07;30.70;99.90
4964;DHT22;2497;47.410;9.740;2023-06-14T14:13:35;30.50;99.90
4964;DHT22;2497;47.410;9.740;2023-06-14T14:16:06;30.50;99.90
4964;DHT22;2497;47.410;9.740;2023-06-14T14:18:33;30.30;99.90
4964;DHT22;2497;47.410;9.740;2023-06-14T14:21:17;30.00;99.90
4964;DHT22;2497;47.410;9.740;2023-06-14T14:23:57;30.10;99.90
4964;DHT22;2497;47.410;9.740;2023-06-14T14:26:25;30.10;99.90
4964;DHT22;2497;47.410;9.740;2023-06-14T14:31:36;29.80;99.90
4964;DHT22;2497;47.410;9.740;2023-06-14T14:34:08;30.00;99.90
4964;DHT22;2497;47.410;9.740;2023-06-14T14:36:47;30.20;99.90
4964;DHT22;2497;47.410;9.740;2023-06-14T14:39:26;30.00;99.90
4964;DHT22;2497;47.410;9.740;2023-06-14T14:41:53;30.00;99.90
4964;DHT22;2497;47.410;9.740;2023-06-14T14:44:24;29.80;99.90
4964;DHT22;2497;47.410;9.740;2023-06-14T14:46:51;29.40;99.90
4964;DHT22;2497;47.410;9.740;2023-06-14T14:49:20;29.50;99.90
4964;DHT22;2497;47.410;9.740;2023-06-14T14:51:49;29.40;99.90
4964;DHT22;2497;47.410;9.740;2023-06-14T14:54:30;29.20;99.90
4964;DHT22;2497;47.410;9.740;2023-06-14T14:57:02;28.90;99.90
4964;DHT22;2497;47.410;9.740;2023-06-14T14:59:35;29.00;99.90
4964;DHT22;2497;47.410;9.740;2023-06-14T15:02:05;29.40;99.90
4964;DHT22;2497;47.410;9.740;2023-06-14T15:04:36;29.30;99.90
4964;DHT22;2497;47.410;9.740;2023-06-14T15:07:05;29.20;99.90
4964;DHT22;2497;47.410;9.740;2023-06-14T15:09:34;29.10;99.90
4964;DHT22;2497;47.410;9.740;2023-06-14T15:12:08;28.90;99.90
4964;DHT22;2497;47.410;9.740;2023-06-14T15:14:51;28.90;99.90
4964;DHT22;2497;47.410;9.740;2023-06-14T15:17:26;28.50;99.90
4964;DHT22;2497;47.410;9.740;2023-06-14T15:25:17;27.60;99.90
4964;DHT22;2497;47.410;9.740;2023-06-14T15:27:45;27.30;99.90
4964;DHT22;2497;47.410;9.740;2023-06-14T15:30:15;26.90;99.90
4964;DHT22;2497;47.410;9.740;2023-06-14T15:33:45;26.80;99.90
4964;DHT22;2497;47.410;9.740;2023-06-14T15:35:57;26.50;99.90
4964;DHT22;2497;47.410;9.740;2023-06-14T15:38:36;26.30;99.90
4964;DHT22;2497;47.410;9.740;2023-06-14T15:41:05;26.10;99.90
4964;DHT22;2497;47.410;9.740;2023-06-14T15:43:45;26.00;99.90
4964;DHT22;2497;47.410;9.740;2023-06-14T15:46:45;25.90;99.90
4964;DHT22;2497;47.410;9.740;2023-06-14T15:49:26;25.80;99.90
4964;DHT22;2497;47.410;9.740;2023-06-14T15:51:55;25.80;99.90
4964;DHT22;2497;47.410;9.740;2023-06-14T15:54:37;25.80;99.90
4964;DHT22;2497;47.410;9.740;2023-06-14T15:57:19;25.70;99.90
4964;DHT22;2497;47.410;9.740;2023-06-14T16:00:18;25.60;99.90
4964;DHT22;2497;47.410;9.740;2023-06-14T16:03:04;25.30;99.90
4964;DHT22;2497;47.410;9.740;2023-06-14T16:08:06;25.30;99.90
4964;DHT22;2497;47.410;9.740;2023-06-14T16:10:34;25.20;99.90
4964;DHT22;2497;47.410;9.740;2023-06-14T16:13:08;25.20;99.90
4964;DHT22;2497;47.410;9.740;2023-06-14T16:15:36;25.20;99.90
4964;DHT22;2497;47.410;9.740;2023-06-14T16:18:03;25.20;99.90
4964;DHT22;2497;47.410;9.740;2023-06-14T16:20:35;25.10;99.90
4964;DHT22;2497;47.410;9.740;2023-06-14T16:23:02;25.20;99.90
4964;DHT22;2497;47.410;9.740;2023-06-14T16:25:29;25.10;99.90
4964;DHT22;2497;47.410;9.740;2023-06-14T16:27:57;25.10;99.90
4964;DHT22;2497;47.410;9.740;2023-06-14T16:30:25;25.10;99.90
4964;DHT22;2497;47.410;9.740;2023-06-14T16:32:52;25.10;99.90
4964;DHT22;2497;47.410;9.740;2023-06-14T16:35:19;25.10;99.90
4964;DHT22;2497;47.410;9.740;2023-06-14T16:37:47;25.00;99.90
4964;DHT22;2497;47.410;9.740;2023-06-14T16:40:14;25.00;99.90
4964;DHT22;2497;47.410;9.740;2023-06-14T16:42:43;24.90;99.90
4964;DHT22;2497;47.410;9.740;2023-06-14T16:45:12;24.90;99.90
4964;DHT22;2497;47.410;9.740;2023-06-14T16:47:41;25.00;99.90
4964;DHT22;2497;47.410;9.740;2023-06-14T16:50:30;25.00;99.90
4964;DHT22;2497;47.410;9.740;2023-06-14T17:04:08;24.80;99.90
4964;DHT22;2497;47.410;9.740;2023-06-14T17:59:27;23.90;99.90
4964;DHT22;2497;47.410;9.740;2023-06-14T18:03:51;23.90;99.90
4964;DHT22;2497;47.410;9.740;2023-06-14T18:05:01;23.90;99.90
4964;DHT22;2497;47.410;9.740;2023-06-14T18:07:47;23.70;99.90
4964;DHT22;2497;47.410;9.740;2023-06-14T18:10:21;23.70;99.90
4964;DHT22;2497;47.410;9.740;2023-06-14T18:13:01;23.60;99.90
4964;DHT22;2497;47.410;9.740;2023-06-14T18:15:39;23.60;99.90
4964;DHT22;2497;47.410;9.740;2023-06-14T18:18:30;23.60;99.90
4964;DHT22;2497;47.410;9.740;2023-06-14T18:21:29;23.50;99.90
4964;DHT22;2497;47.410;9.740;2023-06-14T18:24:31;23.50;99.90
4964;DHT22;2497;47.410;9.740;2023-06-14T18:27:51;23.40;99.90
4964;DHT22;2497;47.410;9.740;2023-06-14T18:30:38;23.30;99.90
4964;DHT22;2497;47.410;9.740;2023-06-14T18:33:10;23.30;99.90
4964;DHT22;2497;47.410;9.740;2023-06-14T18:36:10;23.30;99.90
4964;DHT22;2497;47.410;9.740;2023-06-14T18:38:40;23.20;99.90
4964;DHT22;2497;47.410;9.740;2023-06-14T18:41:10;23.10;99.90
4964;DHT22;2497;47.410;9.740;2023-06-14T18:43:49;23.00;99.90
4964;DHT22;2497;47.410;9.740;2023-06-14T18:46:29;22.90;99.90
4964;DHT22;2497;47.410;9.740;2023-06-14T18:49:00;22.90;99.90
4964;DHT22;2497;47.410;9.740;2023-06-14T18:51:30;22.80;99.90
4964;DHT22;2497;47.410;9.740;2023-06-14T18:54:10;22.80;99.90
4964;DHT22;2497;47.410;9.740;2023-06-14T18:56:58;22.70;99.90
4964;DHT22;2497;47.410;9.740;2023-06-14T18:59:29;22.70;99.90
4964;DHT22;2497;47.410;9.740;2023-06-14T19:01:58;22.60;99.90
4964;DHT22;2497;47.410;9.740;2023-06-14T19:04:28;22.50;99.90